sensor_id;sensor_type;location;lat;lon;timestamp;P1;durP1;ratioP1;P2;durP2;ratioP2
13250;SDS011;6692;50.710;7.180;2023-02-03T00:00:27;242.40;;;233.50;;
13250;SDS011;6692;50.710;7.180;2023-02-03T00:02:28;244.40;;;235.60;;
13250;SDS011;6692;50.710;7.180;2023-02-03T00:04:29;241.17;;;232.37;;
13250;SDS011;6692;50.710;7.180;2023-02-03T00:06:30;241.83;;;233.07;;
13250;SDS011;6692;50.710;7.180;2023-02-03T00:08:31;249.27;;;240.37;;
13250;SDS011;6692;50.710;7.180;2023-02-03T00:10:33;237.17;;;228.30;;
13250;SDS011;6692;50.710;7.180;2023-02-03T00:12:35;233.03;;;224.53;;
13250;SDS011;6692;50.710;7.180;2023-02-03T00:14:35;210.47;;;202.67;;
13250;SDS011;6692;50.710;7.180;2023-02-03T00:16:36;222.10;;;213.87;;
13250;SDS011;6692;50.710;7.180;2023-02-03T00:18:37;216.30;;;208.33;;
13250;SDS011;6692;50.710;7.180;2023-02-03T00:20:37;219.63;;;211.53;;
13250;SDS011;6692;50.710;7.180;2023-02-03T00:22:38;226.77;;;218.47;;
13250;SDS011;6692;50.710;7.180;2023-02-03T00:24:39;276.80;;;266.87;;
13250;SDS011;6692;50.710;7.180;2023-02-03T00:26:40;282.30;;;272.17;;
13250;SDS011;6692;50.710;7.180;2023-02-03T00:28:40;277.80;;;267.80;;
13250;SDS011;6692;50.710;7.180;2023-02-03T00:30:41;221.27;;;213.30;;
13250;SDS011;6692;50.710;7.180;2023-02-03T00:32:42;232.77;;;224.43;;
13250;SDS011;6692;50.710;7.180;2023-02-03T00:34:44;219.93;;;211.93;;
13250;SDS011;6692;50.710;7.180;2023-02-03T00:36:44;212.90;;;205.10;;
13250;SDS011;6692;50.710;7.180;2023-02-03T00:38:45;217.80;;;209.97;;
13250;SDS011;6692;50.710;7.180;2023-02-03T00:40:50;231.00;;;222.60;;
13250;SDS011;6692;50.710;7.180;2023-02-03T00:42:51;226.63;;;218.60;;
13250;SDS011;6692;50.710;7.180;2023-02-03T00:44:51;194.27;;;187.17;;
13250;SDS011;6692;50.710;7.180;2023-02-03T00:46:52;191.43;;;184.47;;
13250;SDS011;6692;50.710;7.180;2023-02-03T00:48:52;203.07;;;195.70;;
13250;SDS011;6692;50.710;7.180;2023-02-03T00:50:54;166.50;;;160.23;;
13250;SDS011;6692;50.710;7.180;2023-02-03T00:52:55;179.43;;;172.77;;
13250;SDS011;6692;50.710;7.180;2023-02-03T00:54:55;179.43;;;172.93;;
13250;SDS011;6692;50.710;7.180;2023-02-03T00:56:56;163.73;;;157.60;;
13250;SDS011;6692;50.710;7.180;2023-02-03T00:58:57;172.73;;;166.43;;
13250;SDS011;6692;50.710;7.180;2023-02-03T01:00:57;195.50;;;188.37;;
13250;SDS011;6692;50.710;7.180;2023-02-03T01:02:59;181.97;;;175.27;;
13250;SDS011;6692;50.710;7.180;2023-02-03T01:05:00;174.63;;;168.13;;
13250;SDS011;6692;50.710;7.180;2023-02-03T01:07:01;187.50;;;180.63;;
13250;SDS011;6692;50.710;7.180;2023-02-03T01:09:02;196.10;;;189.03;;
13250;SDS011;6692;50.710;7.180;2023-02-03T01:11:06;164.40;;;158.37;;
13250;SDS011;6692;50.710;7.180;2023-02-03T01:13:06;175.37;;;168.97;;
13250;SDS011;6692;50.710;7.180;2023-02-03T01:15:07;215.87;;;208.13;;
13250;SDS011;6692;50.710;7.180;2023-02-03T01:17:08;219.40;;;211.50;;
13250;SDS011;6692;50.710;7.180;2023-02-03T01:19:09;214.27;;;206.60;;
13250;SDS011;6692;50.710;7.180;2023-02-03T01:21:11;197.60;;;190.50;;
13250;SDS011;6692;50.710;7.180;2023-02-03T01:23:11;179.97;;;173.53;;
13250;SDS011;6692;50.710;7.180;2023-02-03T01:25:11;203.80;;;196.67;;
13250;SDS011;6692;50.710;7.180;2023-02-03T01:27:12;215.73;;;208.13;;
13250;SDS011;6692;50.710;7.180;2023-02-03T01:29:13;211.07;;;203.23;;
13250;SDS011;6692;50.710;7.180;2023-02-03T01:31:16;193.50;;;186.60;;
13250;SDS011;6692;50.710;7.180;2023-02-03T01:33:15;188.40;;;181.33;;
13250;SDS011;6692;50.710;7.180;2023-02-03T01:35:16;237.13;;;228.77;;
13250;SDS011;6692;50.710;7.180;2023-02-03T01:37:16;207.67;;;200.03;;
13250;SDS011;6692;50.710;7.180;2023-02-03T01:39:17;222.97;;;215.00;;
13250;SDS011;6692;50.710;7.180;2023-02-03T01:41:19;194.40;;;187.23;;
13250;SDS011;6692;50.710;7.180;2023-02-03T01:45:30;187.43;;;180.73;;
13250;SDS011;6692;50.710;7.180;2023-02-03T01:47:33;216.17;;;208.43;;
13250;SDS011;6692;50.710;7.180;2023-02-03T01:49:34;244.87;;;236.33;;
13250;SDS011;6692;50.710;7.180;2023-02-03T01:51:34;213.00;;;205.47;;
13250;SDS011;6692;50.710;7.180;2023-02-03T01:53:34;218.80;;;211.23;;
13250;SDS011;6692;50.710;7.180;2023-02-03T01:55:37;221.60;;;213.77;;
13250;SDS011;6692;50.710;7.180;2023-02-03T01:57:40;217.23;;;209.60;;
13250;SDS011;6692;50.710;7.180;2023-02-03T01:59:39;180.67;;;174.47;;
13250;SDS011;6692;50.710;7.180;2023-02-03T02:01:40;161.07;;;155.37;;
13250;SDS011;6692;50.710;7.180;2023-02-03T02:03:43;199.90;;;192.67;;
13250;SDS011;6692;50.710;7.180;2023-02-03T02:05:48;216.47;;;208.77;;
13250;SDS011;6692;50.710;7.180;2023-02-03T02:07:48;219.30;;;211.67;;
13250;SDS011;6692;50.710;7.180;2023-02-03T02:09:48;183.73;;;177.20;;
13250;SDS011;6692;50.710;7.180;2023-02-03T02:11:49;217.17;;;209.53;;
13250;SDS011;6692;50.710;7.180;2023-02-03T02:13:50;237.93;;;229.40;;
13250;SDS011;6692;50.710;7.180;2023-02-03T02:15:57;213.83;;;206.50;;
13250;SDS011;6692;50.710;7.180;2023-02-03T02:18:01;224.37;;;216.37;;
13250;SDS011;6692;50.710;7.180;2023-02-03T02:20:09;253.27;;;244.40;;
13250;SDS011;6692;50.710;7.180;2023-02-03T02:22:13;183.43;;;176.83;;
13250;SDS011;6692;50.710;7.180;2023-02-03T02:24:25;177.13;;;170.87;;
13250;SDS011;6692;50.710;7.180;2023-02-03T02:26:47;163.50;;;157.63;;
13250;SDS011;6692;50.710;7.180;2023-02-03T02:28:51;189.07;;;182.17;;
13250;SDS011;6692;50.710;7.180;2023-02-03T02:31:01;183.30;;;176.90;;
13250;SDS011;6692;50.710;7.180;2023-02-03T02:34:12;149.77;;;144.30;;
13250;SDS011;6692;50.710;7.180;2023-02-03T02:35:41;116.73;;;112.40;;
13250;SDS011;6692;50.710;7.180;2023-02-03T02:37:51;113.27;;;108.90;;
13250;SDS011;6692;50.710;7.180;2023-02-03T02:42:01;162.33;;;156.60;;
13250;SDS011;6692;50.710;7.180;2023-02-03T02:44:11;150.83;;;145.40;;
13250;SDS011;6692;50.710;7.180;2023-02-03T02:46:18;131.97;;;127.00;;
13250;SDS011;6692;50.710;7.180;2023-02-03T02:48:23;124.17;;;119.60;;
13250;SDS011;6692;50.710;7.180;2023-02-03T02:50:23;166.70;;;160.73;;
13250;SDS011;6692;50.710;7.180;2023-02-03T02:52:23;153.97;;;148.27;;
13250;SDS011;6692;50.710;7.180;2023-02-03T02:54:23;168.93;;;162.80;;
13250;SDS011;6692;50.710;7.180;2023-02-03T02:56:24;135.47;;;130.37;;
13250;SDS011;6692;50.710;7.180;2023-02-03T02:58:25;139.00;;;134.03;;
13250;SDS011;6692;50.710;7.180;2023-02-03T03:00:28;163.60;;;157.57;;
13250;SDS011;6692;50.710;7.180;2023-02-03T03:02:31;137.43;;;132.10;;
13250;SDS011;6692;50.710;7.180;2023-02-03T03:04:31;101.80;;;97.77;;
13250;SDS011;6692;50.710;7.180;2023-02-03T03:06:33;108.20;;;104.20;;
13250;SDS011;6692;50.710;7.180;2023-02-03T03:08:35;112.70;;;108.47;;
13250;SDS011;6692;50.710;7.180;2023-02-03T03:10:37;125.03;;;120.43;;
13250;SDS011;6692;50.710;7.180;2023-02-03T03:12:39;125.73;;;120.93;;
13250;SDS011;6692;50.710;7.180;2023-02-03T03:14:40;124.80;;;120.27;;
13250;SDS011;6692;50.710;7.180;2023-02-03T03:16:40;110.97;;;106.93;;
13250;SDS011;6692;50.710;7.180;2023-02-03T03:18:42;86.23;;;82.93;;
13250;SDS011;6692;50.710;7.180;2023-02-03T03:20:42;100.63;;;96.73;;
13250;SDS011;6692;50.710;7.180;2023-02-03T03:22:44;92.60;;;89.23;;
13250;SDS011;6692;50.710;7.180;2023-02-03T03:24:45;84.13;;;80.83;;
13250;SDS011;6692;50.710;7.180;2023-02-03T03:29:09;67.47;;;64.93;;
13250;SDS011;6692;50.710;7.180;2023-02-03T03:31:08;98.67;;;95.00;;
13250;SDS011;6692;50.710;7.180;2023-02-03T03:33:10;94.83;;;91.33;;
13250;SDS011;6692;50.710;7.180;2023-02-03T03:35:11;79.83;;;76.87;;
13250;SDS011;6692;50.710;7.180;2023-02-03T03:37:19;111.07;;;106.80;;
13250;SDS011;6692;50.710;7.180;2023-02-03T03:39:35;76.93;;;73.97;;
13250;SDS011;6692;50.710;7.180;2023-02-03T03:41:40;88.60;;;85.37;;
13250;SDS011;6692;50.710;7.180;2023-02-03T03:43:41;83.53;;;80.27;;
13250;SDS011;6692;50.710;7.180;2023-02-03T03:46:00;74.20;;;71.30;;
13250;SDS011;6692;50.710;7.180;2023-02-03T03:50:09;70.97;;;68.30;;
13250;SDS011;6692;50.710;7.180;2023-02-03T03:52:09;75.63;;;72.63;;
13250;SDS011;6692;50.710;7.180;2023-02-03T03:54:10;81.10;;;78.00;;
13250;SDS011;6692;50.710;7.180;2023-02-03T03:56:11;68.30;;;65.53;;
13250;SDS011;6692;50.710;7.180;2023-02-03T03:58:12;51.50;;;49.30;;
13250;SDS011;6692;50.710;7.180;2023-02-03T04:00:14;76.23;;;73.23;;
13250;SDS011;6692;50.710;7.180;2023-02-03T04:02:15;64.47;;;61.83;;
13250;SDS011;6692;50.710;7.180;2023-02-03T04:04:16;76.80;;;74.00;;
13250;SDS011;6692;50.710;7.180;2023-02-03T04:06:17;62.87;;;60.17;;
13250;SDS011;6692;50.710;7.180;2023-02-03T04:08:17;63.77;;;61.23;;
13250;SDS011;6692;50.710;7.180;2023-02-03T04:10:26;58.00;;;55.73;;
13250;SDS011;6692;50.710;7.180;2023-02-03T04:12:29;69.30;;;66.60;;
13250;SDS011;6692;50.710;7.180;2023-02-03T04:14:30;83.37;;;80.07;;
13250;SDS011;6692;50.710;7.180;2023-02-03T04:16:31;77.97;;;75.03;;
13250;SDS011;6692;50.710;7.180;2023-02-03T04:18:31;104.23;;;100.37;;
13250;SDS011;6692;50.710;7.180;2023-02-03T04:20:32;93.30;;;89.87;;
13250;SDS011;6692;50.710;7.180;2023-02-03T04:22:33;85.33;;;82.00;;
13250;SDS011;6692;50.710;7.180;2023-02-03T04:24:33;84.03;;;80.67;;
13250;SDS011;6692;50.710;7.180;2023-02-03T04:26:35;86.00;;;82.57;;
13250;SDS011;6692;50.710;7.180;2023-02-03T04:28:36;70.77;;;67.97;;
13250;SDS011;6692;50.710;7.180;2023-02-03T04:30:36;84.13;;;81.00;;
13250;SDS011;6692;50.710;7.180;2023-02-03T04:32:38;63.13;;;60.67;;
13250;SDS011;6692;50.710;7.180;2023-02-03T04:34:38;77.90;;;74.83;;
13250;SDS011;6692;50.710;7.180;2023-02-03T04:36:39;80.60;;;77.43;;
13250;SDS011;6692;50.710;7.180;2023-02-03T04:38:40;88.07;;;84.67;;
13250;SDS011;6692;50.710;7.180;2023-02-03T04:40:40;61.37;;;59.07;;
13250;SDS011;6692;50.710;7.180;2023-02-03T04:42:41;77.70;;;74.60;;
13250;SDS011;6692;50.710;7.180;2023-02-03T04:44:42;70.13;;;67.37;;
13250;SDS011;6692;50.710;7.180;2023-02-03T04:46:43;92.30;;;88.87;;
13250;SDS011;6692;50.710;7.180;2023-02-03T04:48:44;68.10;;;65.33;;
13250;SDS011;6692;50.710;7.180;2023-02-03T04:50:45;74.37;;;71.47;;
13250;SDS011;6692;50.710;7.180;2023-02-03T04:52:45;79.57;;;76.47;;
13250;SDS011;6692;50.710;7.180;2023-02-03T04:54:46;64.33;;;61.57;;
13250;SDS011;6692;50.710;7.180;2023-02-03T04:56:47;71.13;;;68.00;;
13250;SDS011;6692;50.710;7.180;2023-02-03T04:58:48;54.33;;;51.97;;
13250;SDS011;6692;50.710;7.180;2023-02-03T05:00:49;57.23;;;54.87;;
13250;SDS011;6692;50.710;7.180;2023-02-03T05:02:50;65.27;;;62.67;;
13250;SDS011;6692;50.710;7.180;2023-02-03T05:04:51;44.67;;;42.90;;
13250;SDS011;6692;50.710;7.180;2023-02-03T05:06:52;45.40;;;43.57;;
13250;SDS011;6692;50.710;7.180;2023-02-03T05:08:53;64.30;;;61.80;;
13250;SDS011;6692;50.710;7.180;2023-02-03T05:10:55;71.60;;;68.60;;
13250;SDS011;6692;50.710;7.180;2023-02-03T05:12:55;52.83;;;50.47;;
13250;SDS011;6692;50.710;7.180;2023-02-03T05:14:56;49.87;;;47.57;;
13250;SDS011;6692;50.710;7.180;2023-02-03T05:16:57;49.00;;;46.93;;
13250;SDS011;6692;50.710;7.180;2023-02-03T05:18:57;44.80;;;43.07;;
13250;SDS011;6692;50.710;7.180;2023-02-03T05:20:58;37.17;;;35.53;;
13250;SDS011;6692;50.710;7.180;2023-02-03T05:22:59;57.73;;;55.47;;
13250;SDS011;6692;50.710;7.180;2023-02-03T05:25:00;49.10;;;46.93;;
13250;SDS011;6692;50.710;7.180;2023-02-03T05:27:01;35.87;;;34.17;;
13250;SDS011;6692;50.710;7.180;2023-02-03T05:29:02;47.33;;;45.17;;
13250;SDS011;6692;50.710;7.180;2023-02-03T05:31:03;51.87;;;49.57;;
13250;SDS011;6692;50.710;7.180;2023-02-03T05:33:04;49.30;;;47.17;;
13250;SDS011;6692;50.710;7.180;2023-02-03T05:35:06;45.60;;;43.77;;
13250;SDS011;6692;50.710;7.180;2023-02-03T05:37:07;53.33;;;51.00;;
13250;SDS011;6692;50.710;7.180;2023-02-03T05:39:08;48.87;;;46.90;;
13250;SDS011;6692;50.710;7.180;2023-02-03T05:41:09;47.23;;;45.43;;
13250;SDS011;6692;50.710;7.180;2023-02-03T05:43:16;50.63;;;48.40;;
13250;SDS011;6692;50.710;7.180;2023-02-03T05:45:17;52.93;;;50.63;;
13250;SDS011;6692;50.710;7.180;2023-02-03T05:47:18;49.90;;;47.77;;
13250;SDS011;6692;50.710;7.180;2023-02-03T05:49:19;51.30;;;49.13;;
13250;SDS011;6692;50.710;7.180;2023-02-03T05:51:21;59.60;;;57.33;;
13250;SDS011;6692;50.710;7.180;2023-02-03T05:53:22;60.60;;;57.97;;
13250;SDS011;6692;50.710;7.180;2023-02-03T05:55:23;49.17;;;47.07;;
13250;SDS011;6692;50.710;7.180;2023-02-03T05:57:24;55.43;;;53.03;;
13250;SDS011;6692;50.710;7.180;2023-02-03T05:59:25;63.00;;;60.57;;
13250;SDS011;6692;50.710;7.180;2023-02-03T06:01:27;46.07;;;44.13;;
13250;SDS011;6692;50.710;7.180;2023-02-03T06:03:27;45.30;;;43.40;;
13250;SDS011;6692;50.710;7.180;2023-02-03T06:05:28;51.30;;;48.90;;
13250;SDS011;6692;50.710;7.180;2023-02-03T06:07:29;43.40;;;41.63;;
13250;SDS011;6692;50.710;7.180;2023-02-03T06:09:29;43.73;;;41.83;;
13250;SDS011;6692;50.710;7.180;2023-02-03T06:11:31;51.37;;;49.27;;
13250;SDS011;6692;50.710;7.180;2023-02-03T06:13:31;42.80;;;41.00;;
13250;SDS011;6692;50.710;7.180;2023-02-03T06:15:32;52.77;;;50.47;;
13250;SDS011;6692;50.710;7.180;2023-02-03T06:17:33;47.20;;;45.10;;
13250;SDS011;6692;50.710;7.180;2023-02-03T06:19:34;44.93;;;42.97;;
13250;SDS011;6692;50.710;7.180;2023-02-03T06:21:35;52.73;;;50.33;;
13250;SDS011;6692;50.710;7.180;2023-02-03T06:23:36;36.87;;;35.27;;
13250;SDS011;6692;50.710;7.180;2023-02-03T06:25:36;48.70;;;46.40;;
13250;SDS011;6692;50.710;7.180;2023-02-03T06:27:37;45.30;;;43.37;;
13250;SDS011;6692;50.710;7.180;2023-02-03T06:29:39;46.03;;;44.10;;
13250;SDS011;6692;50.710;7.180;2023-02-03T06:31:40;36.17;;;34.50;;
13250;SDS011;6692;50.710;7.180;2023-02-03T06:33:41;37.50;;;35.53;;
13250;SDS011;6692;50.710;7.180;2023-02-03T06:35:42;46.57;;;44.37;;
13250;SDS011;6692;50.710;7.180;2023-02-03T06:37:43;52.47;;;50.33;;
13250;SDS011;6692;50.710;7.180;2023-02-03T06:39:44;39.63;;;37.80;;
13250;SDS011;6692;50.710;7.180;2023-02-03T06:41:44;54.67;;;52.47;;
13250;SDS011;6692;50.710;7.180;2023-02-03T06:43:45;49.60;;;47.40;;
13250;SDS011;6692;50.710;7.180;2023-02-03T06:45:46;48.27;;;46.07;;
13250;SDS011;6692;50.710;7.180;2023-02-03T06:47:46;47.37;;;44.97;;
13250;SDS011;6692;50.710;7.180;2023-02-03T06:49:47;41.27;;;39.50;;
13250;SDS011;6692;50.710;7.180;2023-02-03T06:51:48;52.73;;;50.60;;
13250;SDS011;6692;50.710;7.180;2023-02-03T06:53:49;42.97;;;41.03;;
13250;SDS011;6692;50.710;7.180;2023-02-03T06:55:51;42.57;;;40.37;;
13250;SDS011;6692;50.710;7.180;2023-02-03T06:57:51;34.67;;;33.10;;
13250;SDS011;6692;50.710;7.180;2023-02-03T06:59:52;43.13;;;41.23;;
13250;SDS011;6692;50.710;7.180;2023-02-03T07:01:53;46.60;;;44.63;;
13250;SDS011;6692;50.710;7.180;2023-02-03T07:03:54;42.70;;;40.10;;
13250;SDS011;6692;50.710;7.180;2023-02-03T07:05:55;38.90;;;37.23;;
13250;SDS011;6692;50.710;7.180;2023-02-03T07:07:55;37.37;;;35.57;;
13250;SDS011;6692;50.710;7.180;2023-02-03T07:09:56;48.30;;;45.70;;
13250;SDS011;6692;50.710;7.180;2023-02-03T07:11:57;48.97;;;46.77;;
13250;SDS011;6692;50.710;7.180;2023-02-03T07:13:58;50.27;;;48.20;;
13250;SDS011;6692;50.710;7.180;2023-02-03T07:15:59;46.67;;;44.53;;
13250;SDS011;6692;50.710;7.180;2023-02-03T07:18:00;49.57;;;47.37;;
13250;SDS011;6692;50.710;7.180;2023-02-03T07:20:01;39.13;;;37.30;;
13250;SDS011;6692;50.710;7.180;2023-02-03T07:22:03;36.00;;;34.50;;
13250;SDS011;6692;50.710;7.180;2023-02-03T07:24:04;48.37;;;46.37;;
13250;SDS011;6692;50.710;7.180;2023-02-03T07:26:05;44.07;;;42.27;;
13250;SDS011;6692;50.710;7.180;2023-02-03T07:28:06;39.80;;;38.00;;
13250;SDS011;6692;50.710;7.180;2023-02-03T07:30:08;41.63;;;39.90;;
13250;SDS011;6692;50.710;7.180;2023-02-03T07:32:09;63.87;;;61.37;;
13250;SDS011;6692;50.710;7.180;2023-02-03T07:34:10;61.87;;;59.40;;
13250;SDS011;6692;50.710;7.180;2023-02-03T07:36:12;47.47;;;45.47;;
13250;SDS011;6692;50.710;7.180;2023-02-03T07:38:13;41.30;;;39.70;;
13250;SDS011;6692;50.710;7.180;2023-02-03T07:40:14;48.27;;;46.20;;
13250;SDS011;6692;50.710;7.180;2023-02-03T07:42:15;41.13;;;39.50;;
13250;SDS011;6692;50.710;7.180;2023-02-03T07:44:16;50.67;;;48.63;;
13250;SDS011;6692;50.710;7.180;2023-02-03T07:46:17;42.77;;;41.07;;
13250;SDS011;6692;50.710;7.180;2023-02-03T07:48:17;38.77;;;36.83;;
13250;SDS011;6692;50.710;7.180;2023-02-03T07:50:18;35.20;;;33.80;;
13250;SDS011;6692;50.710;7.180;2023-02-03T07:52:19;32.80;;;31.50;;
13250;SDS011;6692;50.710;7.180;2023-02-03T07:54:20;46.17;;;44.23;;
13250;SDS011;6692;50.710;7.180;2023-02-03T07:56:20;31.40;;;30.03;;
13250;SDS011;6692;50.710;7.180;2023-02-03T07:58:22;42.63;;;40.90;;
13250;SDS011;6692;50.710;7.180;2023-02-03T08:00:22;35.70;;;34.17;;
13250;SDS011;6692;50.710;7.180;2023-02-03T08:02:23;42.70;;;40.77;;
13250;SDS011;6692;50.710;7.180;2023-02-03T08:04:25;41.33;;;39.57;;
13250;SDS011;6692;50.710;7.180;2023-02-03T08:06:25;33.73;;;32.33;;
13250;SDS011;6692;50.710;7.180;2023-02-03T08:08:27;47.30;;;45.30;;
13250;SDS011;6692;50.710;7.180;2023-02-03T08:10:28;47.17;;;45.20;;
13250;SDS011;6692;50.710;7.180;2023-02-03T08:12:29;36.57;;;34.80;;
13250;SDS011;6692;50.710;7.180;2023-02-03T08:14:30;36.73;;;35.03;;
13250;SDS011;6692;50.710;7.180;2023-02-03T08:16:30;34.77;;;33.30;;
13250;SDS011;6692;50.710;7.180;2023-02-03T08:18:31;40.80;;;38.63;;
13250;SDS011;6692;50.710;7.180;2023-02-03T08:20:32;47.67;;;45.77;;
13250;SDS011;6692;50.710;7.180;2023-02-03T08:22:33;38.60;;;37.00;;
13250;SDS011;6692;50.710;7.180;2023-02-03T08:24:34;46.80;;;45.03;;
13250;SDS011;6692;50.710;7.180;2023-02-03T08:26:35;43.97;;;42.03;;
13250;SDS011;6692;50.710;7.180;2023-02-03T08:28:35;48.90;;;46.90;;
13250;SDS011;6692;50.710;7.180;2023-02-03T08:30:37;45.00;;;43.03;;
13250;SDS011;6692;50.710;7.180;2023-02-03T08:32:38;53.83;;;51.67;;
13250;SDS011;6692;50.710;7.180;2023-02-03T08:34:38;48.40;;;46.30;;
13250;SDS011;6692;50.710;7.180;2023-02-03T08:36:39;50.97;;;48.90;;
13250;SDS011;6692;50.710;7.180;2023-02-03T08:38:40;42.67;;;40.90;;
13250;SDS011;6692;50.710;7.180;2023-02-03T08:40:40;49.87;;;47.90;;
13250;SDS011;6692;50.710;7.180;2023-02-03T08:42:41;43.63;;;41.70;;
13250;SDS011;6692;50.710;7.180;2023-02-03T08:44:42;61.80;;;59.50;;
13250;SDS011;6692;50.710;7.180;2023-02-03T08:46:43;54.70;;;52.53;;
13250;SDS011;6692;50.710;7.180;2023-02-03T08:48:44;53.33;;;50.97;;
13250;SDS011;6692;50.710;7.180;2023-02-03T08:50:45;43.20;;;41.27;;
13250;SDS011;6692;50.710;7.180;2023-02-03T08:52:46;35.73;;;34.33;;
13250;SDS011;6692;50.710;7.180;2023-02-03T08:54:47;41.23;;;39.33;;
13250;SDS011;6692;50.710;7.180;2023-02-03T08:56:47;40.37;;;38.73;;
13250;SDS011;6692;50.710;7.180;2023-02-03T08:58:49;44.13;;;42.33;;
13250;SDS011;6692;50.710;7.180;2023-02-03T09:00:50;72.33;;;69.47;;
13250;SDS011;6692;50.710;7.180;2023-02-03T09:02:50;58.17;;;55.80;;
13250;SDS011;6692;50.710;7.180;2023-02-03T09:04:51;51.00;;;48.90;;
13250;SDS011;6692;50.710;7.180;2023-02-03T09:06:52;52.67;;;50.53;;
13250;SDS011;6692;50.710;7.180;2023-02-03T09:08:54;51.50;;;49.40;;
13250;SDS011;6692;50.710;7.180;2023-02-03T09:10:55;40.93;;;39.20;;
13250;SDS011;6692;50.710;7.180;2023-02-03T09:12:55;37.73;;;36.20;;
13250;SDS011;6692;50.710;7.180;2023-02-03T09:14:56;43.47;;;41.47;;
13250;SDS011;6692;50.710;7.180;2023-02-03T09:16:58;51.00;;;48.93;;
13250;SDS011;6692;50.710;7.180;2023-02-03T09:18:59;61.00;;;58.50;;
13250;SDS011;6692;50.710;7.180;2023-02-03T09:21:01;49.73;;;47.63;;
13250;SDS011;6692;50.710;7.180;2023-02-03T09:23:02;42.83;;;40.90;;
13250;SDS011;6692;50.710;7.180;2023-02-03T09:25:03;43.63;;;41.83;;
13250;SDS011;6692;50.710;7.180;2023-02-03T09:27:04;38.03;;;36.47;;
13250;SDS011;6692;50.710;7.180;2023-02-03T09:29:06;68.60;;;66.10;;
13250;SDS011;6692;50.710;7.180;2023-02-03T09:31:07;66.93;;;64.40;;
13250;SDS011;6692;50.710;7.180;2023-02-03T09:33:10;52.17;;;49.97;;
13250;SDS011;6692;50.710;7.180;2023-02-03T09:35:11;54.53;;;52.30;;
13250;SDS011;6692;50.710;7.180;2023-02-03T09:37:12;64.10;;;61.67;;
13250;SDS011;6692;50.710;7.180;2023-02-03T09:39:13;50.30;;;48.37;;
13250;SDS011;6692;50.710;7.180;2023-02-03T09:41:21;68.87;;;66.23;;
13250;SDS011;6692;50.710;7.180;2023-02-03T09:43:28;68.27;;;65.53;;
13250;SDS011;6692;50.710;7.180;2023-02-03T09:45:30;65.90;;;63.27;;
13250;SDS011;6692;50.710;7.180;2023-02-03T09:47:33;58.40;;;56.13;;
13250;SDS011;6692;50.710;7.180;2023-02-03T09:49:37;56.57;;;54.33;;
13250;SDS011;6692;50.710;7.180;2023-02-03T09:54:33;70.80;;;67.97;;
13250;SDS011;6692;50.710;7.180;2023-02-03T09:56:17;57.70;;;55.43;;
13250;SDS011;6692;50.710;7.180;2023-02-03T09:58:15;69.43;;;66.73;;
13250;SDS011;6692;50.710;7.180;2023-02-03T10:00:22;70.50;;;67.80;;
13250;SDS011;6692;50.710;7.180;2023-02-03T10:02:27;71.83;;;69.13;;
13250;SDS011;6692;50.710;7.180;2023-02-03T10:04:43;77.03;;;74.23;;
13250;SDS011;6692;50.710;7.180;2023-02-03T10:06:43;91.73;;;88.30;;
13250;SDS011;6692;50.710;7.180;2023-02-03T10:08:51;94.37;;;90.53;;
13250;SDS011;6692;50.710;7.180;2023-02-03T10:10:52;92.37;;;88.70;;
13250;SDS011;6692;50.710;7.180;2023-02-03T10:12:56;91.13;;;87.73;;
13250;SDS011;6692;50.710;7.180;2023-02-03T10:15:02;70.53;;;67.40;;
13250;SDS011;6692;50.710;7.180;2023-02-03T10:17:19;78.70;;;75.80;;
13250;SDS011;6692;50.710;7.180;2023-02-03T10:19:24;88.30;;;85.00;;
13250;SDS011;6692;50.710;7.180;2023-02-03T10:21:32;102.37;;;98.50;;
13250;SDS011;6692;50.710;7.180;2023-02-03T10:23:35;75.70;;;72.87;;
13250;SDS011;6692;50.710;7.180;2023-02-03T10:25:43;93.97;;;90.53;;
13250;SDS011;6692;50.710;7.180;2023-02-03T10:27:45;100.93;;;97.07;;
13250;SDS011;6692;50.710;7.180;2023-02-03T10:29:49;87.17;;;83.83;;
13250;SDS011;6692;50.710;7.180;2023-02-03T10:31:48;73.23;;;70.07;;
13250;SDS011;6692;50.710;7.180;2023-02-03T10:33:58;96.43;;;92.87;;
13250;SDS011;6692;50.710;7.180;2023-02-03T10:35:52;106.30;;;102.00;;
13250;SDS011;6692;50.710;7.180;2023-02-03T10:37:52;117.90;;;113.40;;
13250;SDS011;6692;50.710;7.180;2023-02-03T10:39:53;80.73;;;77.73;;
13250;SDS011;6692;50.710;7.180;2023-02-03T10:41:54;110.87;;;106.60;;
13250;SDS011;6692;50.710;7.180;2023-02-03T10:43:54;94.43;;;90.77;;
13250;SDS011;6692;50.710;7.180;2023-02-03T10:45:56;131.07;;;126.27;;
13250;SDS011;6692;50.710;7.180;2023-02-03T10:47:56;97.67;;;93.97;;
13250;SDS011;6692;50.710;7.180;2023-02-03T10:49:59;118.37;;;114.17;;
13250;SDS011;6692;50.710;7.180;2023-02-03T10:51:59;117.03;;;112.73;;
13250;SDS011;6692;50.710;7.180;2023-02-03T10:53:59;111.27;;;107.03;;
13250;SDS011;6692;50.710;7.180;2023-02-03T10:56:03;84.37;;;80.90;;
13250;SDS011;6692;50.710;7.180;2023-02-03T10:58:05;89.23;;;85.60;;
13250;SDS011;6692;50.710;7.180;2023-02-03T11:00:21;115.63;;;111.30;;
13250;SDS011;6692;50.710;7.180;2023-02-03T11:02:25;88.77;;;85.40;;
13250;SDS011;6692;50.710;7.180;2023-02-03T11:04:29;92.43;;;88.97;;
13250;SDS011;6692;50.710;7.180;2023-02-03T11:06:29;129.40;;;124.83;;
13250;SDS011;6692;50.710;7.180;2023-02-03T11:08:29;92.43;;;89.00;;
13250;SDS011;6692;50.710;7.180;2023-02-03T11:10:32;86.20;;;82.90;;
13250;SDS011;6692;50.710;7.180;2023-02-03T11:12:33;91.20;;;87.80;;
13250;SDS011;6692;50.710;7.180;2023-02-03T11:14:35;103.43;;;99.63;;
13250;SDS011;6692;50.710;7.180;2023-02-03T11:16:35;92.40;;;89.00;;
13250;SDS011;6692;50.710;7.180;2023-02-03T11:18:39;116.50;;;112.23;;
13250;SDS011;6692;50.710;7.180;2023-02-03T11:20:39;113.97;;;109.90;;
13250;SDS011;6692;50.710;7.180;2023-02-03T11:22:40;118.70;;;114.40;;
13250;SDS011;6692;50.710;7.180;2023-02-03T11:24:40;127.43;;;122.83;;
13250;SDS011;6692;50.710;7.180;2023-02-03T11:26:43;125.20;;;120.60;;
13250;SDS011;6692;50.710;7.180;2023-02-03T11:28:43;127.97;;;123.37;;
13250;SDS011;6692;50.710;7.180;2023-02-03T11:30:43;90.47;;;87.23;;
13250;SDS011;6692;50.710;7.180;2023-02-03T11:32:45;107.90;;;104.03;;
13250;SDS011;6692;50.710;7.180;2023-02-03T11:34:48;121.63;;;117.17;;
13250;SDS011;6692;50.710;7.180;2023-02-03T11:36:53;124.57;;;120.20;;
13250;SDS011;6692;50.710;7.180;2023-02-03T11:39:10;114.47;;;110.43;;
13250;SDS011;6692;50.710;7.180;2023-02-03T11:41:16;87.77;;;84.57;;
13250;SDS011;6692;50.710;7.180;2023-02-03T11:43:16;100.37;;;96.77;;
13250;SDS011;6692;50.710;7.180;2023-02-03T11:45:24;102.40;;;98.57;;
13250;SDS011;6692;50.710;7.180;2023-02-03T11:47:24;126.83;;;122.40;;
13250;SDS011;6692;50.710;7.180;2023-02-03T11:49:33;128.80;;;124.30;;
13250;SDS011;6692;50.710;7.180;2023-02-03T11:51:37;126.23;;;121.67;;
13250;SDS011;6692;50.710;7.180;2023-02-03T11:53:41;157.40;;;151.80;;
13250;SDS011;6692;50.710;7.180;2023-02-03T11:55:40;144.73;;;139.67;;
13250;SDS011;6692;50.710;7.180;2023-02-03T11:57:52;169.00;;;163.20;;
13250;SDS011;6692;50.710;7.180;2023-02-03T12:01:06;137.17;;;132.10;;
13250;SDS011;6692;50.710;7.180;2023-02-03T12:02:26;127.93;;;123.33;;
13250;SDS011;6692;50.710;7.180;2023-02-03T12:04:42;132.47;;;127.77;;
13250;SDS011;6692;50.710;7.180;2023-02-03T12:07:33;128.27;;;123.73;;
13250;SDS011;6692;50.710;7.180;2023-02-03T12:09:22;129.57;;;124.73;;